sensor_id;sensor_type;location;lat;lon;timestamp;P1;durP1;ratioP1;P2;durP2;ratioP2
72053;SDS011;59918;51.280;7.950;2023-06-22T00:00:58;10.55;;;9.70;;
72053;SDS011;59918;51.280;7.950;2023-06-22T00:03:24;11.52;;;10.43;;
72053;SDS011;59918;51.280;7.950;2023-06-22T00:05:53;11.52;;;10.48;;
72053;SDS011;59918;51.280;7.950;2023-06-22T00:08:19;11.40;;;10.20;;
72053;SDS011;59918;51.280;7.950;2023-06-22T00:10:45;14.95;;;10.68;;
72053;SDS011;59918;51.280;7.950;2023-06-22T00:13:11;11.05;;;9.82;;
72053;SDS011;59918;51.280;7.950;2023-06-22T00:15:43;10.90;;;9.88;;
72053;SDS011;59918;51.280;7.950;2023-06-22T00:18:09;11.00;;;10.13;;
72053;SDS011;59918;51.280;7.950;2023-06-22T00:20:35;15.90;;;10.43;;
72053;SDS011;59918;51.280;7.950;2023-06-22T00:23:07;11.15;;;10.13;;
72053;SDS011;59918;51.280;7.950;2023-06-22T00:25:33;11.90;;;10.32;;
72053;SDS011;59918;51.280;7.950;2023-06-22T00:28:05;11.30;;;10.20;;
72053;SDS011;59918;51.280;7.950;2023-06-22T00:30:31;11.80;;;10.15;;
72053;SDS011;59918;51.280;7.950;2023-06-22T00:32:57;11.43;;;10.52;;
72053;SDS011;59918;51.280;7.950;2023-06-22T00:35:23;11.68;;;10.48;;
72053;SDS011;59918;51.280;7.950;2023-06-22T00:37:55;11.27;;;10.25;;
72053;SDS011;59918;51.280;7.950;2023-06-22T00:40:21;11.82;;;10.63;;
72053;SDS011;59918;51.280;7.950;2023-06-22T00:42:46;11.65;;;10.75;;
72053;SDS011;59918;51.280;7.950;2023-06-22T00:45:11;11.88;;;10.75;;
72053;SDS011;59918;51.280;7.950;2023-06-22T00:47:36;11.60;;;10.52;;
72053;SDS011;59918;51.280;7.950;2023-06-22T00:50:06;10.77;;;9.82;;
72053;SDS011;59918;51.280;7.950;2023-06-22T00:52:32;14.55;;;9.95;;
72053;SDS011;59918;51.280;7.950;2023-06-22T00:54:57;11.90;;;10.60;;
72053;SDS011;59918;51.280;7.950;2023-06-22T00:57:24;11.73;;;9.90;;
72053;SDS011;59918;51.280;7.950;2023-06-22T00:59:53;12.10;;;11.00;;
72053;SDS011;59918;51.280;7.950;2023-06-22T01:02:19;11.13;;;10.18;;
72053;SDS011;59918;51.280;7.950;2023-06-22T01:04:45;12.00;;;10.77;;
72053;SDS011;59918;51.280;7.950;2023-06-22T01:09:47;13.80;;;11.50;;
72053;SDS011;59918;51.280;7.950;2023-06-22T01:12:18;11.88;;;10.77;;
72053;SDS011;59918;51.280;7.950;2023-06-22T01:14:49;11.50;;;10.60;;
72053;SDS011;59918;51.280;7.950;2023-06-22T01:17:21;12.85;;;11.43;;
72053;SDS011;59918;51.280;7.950;2023-06-22T01:19:57;12.27;;;11.07;;
72053;SDS011;59918;51.280;7.950;2023-06-22T01:22:25;11.98;;;10.80;;
72053;SDS011;59918;51.280;7.950;2023-06-22T01:30:45;12.10;;;10.77;;
72053;SDS011;59918;51.280;7.950;2023-06-22T01:33:12;12.55;;;10.45;;
72053;SDS011;59918;51.280;7.950;2023-06-22T01:35:44;11.80;;;10.75;;
72053;SDS011;59918;51.280;7.950;2023-06-22T01:38:10;11.63;;;10.45;;
72053;SDS011;59918;51.280;7.950;2023-06-22T01:40:35;12.10;;;10.82;;
72053;SDS011;59918;51.280;7.950;2023-06-22T01:43:01;11.27;;;10.20;;
72053;SDS011;59918;51.280;7.950;2023-06-22T01:45:30;12.27;;;9.82;;
72053;SDS011;59918;51.280;7.950;2023-06-22T01:47:55;12.07;;;11.05;;
72053;SDS011;59918;51.280;7.950;2023-06-22T01:50:21;11.85;;;10.75;;
72053;SDS011;59918;51.280;7.950;2023-06-22T01:52:46;11.32;;;10.20;;
72053;SDS011;59918;51.280;7.950;2023-06-22T01:55:12;12.50;;;10.65;;
72053;SDS011;59918;51.280;7.950;2023-06-22T01:57:37;11.55;;;10.32;;
72053;SDS011;59918;51.280;7.950;2023-06-22T02:00:03;12.18;;;10.95;;
72053;SDS011;59918;51.280;7.950;2023-06-22T02:02:39;11.73;;;10.68;;
72053;SDS011;59918;51.280;7.950;2023-06-22T02:05:24;11.05;;;9.90;;
72053;SDS011;59918;51.280;7.950;2023-06-22T02:07:58;13.48;;;10.48;;
72053;SDS011;59918;51.280;7.950;2023-06-22T02:10:25;11.63;;;10.50;;
72053;SDS011;59918;51.280;7.950;2023-06-22T02:12:55;12.80;;;10.93;;
72053;SDS011;59918;51.280;7.950;2023-06-22T02:15:22;12.00;;;10.90;;
72053;SDS011;59918;51.280;7.950;2023-06-22T02:17:48;12.82;;;10.98;;
72053;SDS011;59918;51.280;7.950;2023-06-22T02:20:13;12.05;;;10.95;;
72053;SDS011;59918;51.280;7.950;2023-06-22T02:22:45;12.90;;;11.02;;
72053;SDS011;59918;51.280;7.950;2023-06-22T02:25:11;12.93;;;11.83;;
72053;SDS011;59918;51.280;7.950;2023-06-22T02:27:36;12.25;;;11.23;;
72053;SDS011;59918;51.280;7.950;2023-06-22T02:30:01;12.05;;;11.05;;
72053;SDS011;59918;51.280;7.950;2023-06-22T02:32:26;14.13;;;11.25;;
72053;SDS011;59918;51.280;7.950;2023-06-22T02:34:55;15.27;;;11.90;;
72053;SDS011;59918;51.280;7.950;2023-06-22T02:37:20;12.23;;;11.00;;
72053;SDS011;59918;51.280;7.950;2023-06-22T02:39:45;13.55;;;11.88;;
72053;SDS011;59918;51.280;7.950;2023-06-22T02:42:11;13.32;;;11.98;;
72053;SDS011;59918;51.280;7.950;2023-06-22T02:44:36;15.02;;;11.77;;
72053;SDS011;59918;51.280;7.950;2023-06-22T02:47:02;12.15;;;10.85;;
72053;SDS011;59918;51.280;7.950;2023-06-22T02:49:27;12.23;;;11.00;;
72053;SDS011;59918;51.280;7.950;2023-06-22T02:51:53;13.35;;;11.20;;
72053;SDS011;59918;51.280;7.950;2023-06-22T02:54:18;12.88;;;11.35;;
72053;SDS011;59918;51.280;7.950;2023-06-22T02:56:43;15.45;;;11.57;;
72053;SDS011;59918;51.280;7.950;2023-06-22T02:59:09;14.52;;;11.40;;
72053;SDS011;59918;51.280;7.950;2023-06-22T03:01:34;13.70;;;12.23;;
72053;SDS011;59918;51.280;7.950;2023-06-22T03:04:00;14.00;;;12.43;;
72053;SDS011;59918;51.280;7.950;2023-06-22T03:06:25;13.15;;;11.88;;
72053;SDS011;59918;51.280;7.950;2023-06-22T03:08:50;12.93;;;11.85;;
72053;SDS011;59918;51.280;7.950;2023-06-22T03:11:15;13.32;;;11.93;;
72053;SDS011;59918;51.280;7.950;2023-06-22T03:13:41;12.88;;;11.85;;
72053;SDS011;59918;51.280;7.950;2023-06-22T03:16:06;13.85;;;12.38;;
72053;SDS011;59918;51.280;7.950;2023-06-22T03:18:31;14.20;;;12.75;;
72053;SDS011;59918;51.280;7.950;2023-06-22T03:20:56;13.98;;;12.77;;
72053;SDS011;59918;51.280;7.950;2023-06-22T03:23:22;21.90;;;13.48;;
72053;SDS011;59918;51.280;7.950;2023-06-22T03:25:47;14.68;;;12.65;;
72053;SDS011;59918;51.280;7.950;2023-06-22T03:28:12;14.02;;;12.65;;
72053;SDS011;59918;51.280;7.950;2023-06-22T03:30:37;15.07;;;12.77;;
72053;SDS011;59918;51.280;7.950;2023-06-22T03:33:03;14.07;;;12.77;;
72053;SDS011;59918;51.280;7.950;2023-06-22T03:35:28;13.65;;;12.27;;
72053;SDS011;59918;51.280;7.950;2023-06-22T03:37:53;13.95;;;12.60;;
72053;SDS011;59918;51.280;7.950;2023-06-22T03:40:18;14.43;;;12.98;;
72053;SDS011;59918;51.280;7.950;2023-06-22T03:42:44;14.45;;;13.05;;
72053;SDS011;59918;51.280;7.950;2023-06-22T03:45:09;13.75;;;12.43;;
72053;SDS011;59918;51.280;7.950;2023-06-22T03:47:35;13.98;;;12.70;;
72053;SDS011;59918;51.280;7.950;2023-06-22T03:50:00;14.18;;;12.85;;
72053;SDS011;59918;51.280;7.950;2023-06-22T03:52:26;14.75;;;13.32;;
72053;SDS011;59918;51.280;7.950;2023-06-22T03:54:51;14.55;;;12.82;;
72053;SDS011;59918;51.280;7.950;2023-06-22T03:57:16;14.88;;;13.18;;
72053;SDS011;59918;51.280;7.950;2023-06-22T03:59:42;15.63;;;14.10;;
72053;SDS011;59918;51.280;7.950;2023-06-22T04:02:07;17.13;;;15.38;;
72053;SDS011;59918;51.280;7.950;2023-06-22T04:04:32;16.38;;;14.88;;
72053;SDS011;59918;51.280;7.950;2023-06-22T04:06:57;17.42;;;15.65;;
72053;SDS011;59918;51.280;7.950;2023-06-22T04:09:23;15.98;;;14.48;;
72053;SDS011;59918;51.280;7.950;2023-06-22T04:11:48;14.85;;;13.55;;
72053;SDS011;59918;51.280;7.950;2023-06-22T04:14:14;15.02;;;13.68;;
72053;SDS011;59918;51.280;7.950;2023-06-22T04:16:39;15.20;;;13.80;;
72053;SDS011;59918;51.280;7.950;2023-06-22T04:19:04;15.52;;;14.20;;
72053;SDS011;59918;51.280;7.950;2023-06-22T04:21:29;15.88;;;14.60;;
72053;SDS011;59918;51.280;7.950;2023-06-22T04:23:55;16.60;;;14.05;;
72053;SDS011;59918;51.280;7.950;2023-06-22T04:26:20;17.25;;;15.50;;
72053;SDS011;59918;51.280;7.950;2023-06-22T04:28:45;17.00;;;15.05;;
72053;SDS011;59918;51.280;7.950;2023-06-22T04:31:10;25.02;;;18.25;;
72053;SDS011;59918;51.280;7.950;2023-06-22T04:33:35;27.63;;;20.17;;
72053;SDS011;59918;51.280;7.950;2023-06-22T04:36:01;28.67;;;22.53;;
72053;SDS011;59918;51.280;7.950;2023-06-22T04:38:26;50.92;;;26.45;;
72053;SDS011;59918;51.280;7.950;2023-06-22T04:40:52;34.05;;;26.42;;
72053;SDS011;59918;51.280;7.950;2023-06-22T04:43:17;32.85;;;25.15;;
72053;SDS011;59918;51.280;7.950;2023-06-22T04:45:42;49.85;;;30.10;;
72053;SDS011;59918;51.280;7.950;2023-06-22T04:48:08;31.77;;;21.48;;
72053;SDS011;59918;51.280;7.950;2023-06-22T04:50:33;25.95;;;21.45;;
72053;SDS011;59918;51.280;7.950;2023-06-22T04:52:58;31.17;;;24.63;;
72053;SDS011;59918;51.280;7.950;2023-06-22T04:55:23;30.45;;;26.83;;
72053;SDS011;59918;51.280;7.950;2023-06-22T04:57:49;35.85;;;28.20;;
72053;SDS011;59918;51.280;7.950;2023-06-22T05:00:18;38.85;;;30.60;;
72053;SDS011;59918;51.280;7.950;2023-06-22T05:02:44;54.53;;;35.33;;
72053;SDS011;59918;51.280;7.950;2023-06-22T05:05:10;50.50;;;34.47;;
72053;SDS011;59918;51.280;7.950;2023-06-22T05:07:36;53.67;;;33.85;;
72053;SDS011;59918;51.280;7.950;2023-06-22T05:10:04;52.83;;;32.75;;
72053;SDS011;59918;51.280;7.950;2023-06-22T05:12:30;51.88;;;34.58;;
72053;SDS011;59918;51.280;7.950;2023-06-22T05:14:56;53.25;;;33.67;;
72053;SDS011;59918;51.280;7.950;2023-06-22T05:17:21;45.33;;;31.98;;
72053;SDS011;59918;51.280;7.950;2023-06-22T05:19:46;47.22;;;33.53;;
72053;SDS011;59918;51.280;7.950;2023-06-22T05:22:12;49.45;;;32.45;;
72053;SDS011;59918;51.280;7.950;2023-06-22T05:24:37;39.05;;;29.27;;
72053;SDS011;59918;51.280;7.950;2023-06-22T05:27:03;34.28;;;26.70;;
72053;SDS011;59918;51.280;7.950;2023-06-22T05:29:28;46.75;;;30.95;;
72053;SDS011;59918;51.280;7.950;2023-06-22T05:31:53;37.92;;;29.77;;
72053;SDS011;59918;51.280;7.950;2023-06-22T05:34:18;38.55;;;30.42;;
72053;SDS011;59918;51.280;7.950;2023-06-22T05:36:44;51.05;;;33.35;;
72053;SDS011;59918;51.280;7.950;2023-06-22T05:39:13;40.10;;;31.15;;
72053;SDS011;59918;51.280;7.950;2023-06-22T05:41:39;45.40;;;31.63;;
72053;SDS011;59918;51.280;7.950;2023-06-22T05:44:04;47.03;;;33.08;;
72053;SDS011;59918;51.280;7.950;2023-06-22T05:46:29;60.50;;;35.67;;
72053;SDS011;59918;51.280;7.950;2023-06-22T05:48:55;61.03;;;36.22;;
72053;SDS011;59918;51.280;7.950;2023-06-22T05:51:20;59.13;;;35.90;;
72053;SDS011;59918;51.280;7.950;2023-06-22T05:53:45;53.22;;;34.33;;
72053;SDS011;59918;51.280;7.950;2023-06-22T05:56:10;57.65;;;35.38;;
72053;SDS011;59918;51.280;7.950;2023-06-22T05:58:36;49.85;;;34.08;;
72053;SDS011;59918;51.280;7.950;2023-06-22T06:01:01;50.92;;;34.88;;
72053;SDS011;59918;51.280;7.950;2023-06-22T06:03:26;55.03;;;35.17;;
72053;SDS011;59918;51.280;7.950;2023-06-22T06:05:51;56.78;;;35.88;;
72053;SDS011;59918;51.280;7.950;2023-06-22T06:08:17;57.67;;;35.80;;
72053;SDS011;59918;51.280;7.950;2023-06-22T06:10:42;49.60;;;34.92;;
72053;SDS011;59918;51.280;7.950;2023-06-22T06:13:07;52.30;;;35.83;;
72053;SDS011;59918;51.280;7.950;2023-06-22T06:15:33;61.08;;;38.47;;
72053;SDS011;59918;51.280;7.950;2023-06-22T06:17:59;55.22;;;36.78;;
72053;SDS011;59918;51.280;7.950;2023-06-22T06:20:24;42.58;;;33.05;;
72053;SDS011;59918;51.280;7.950;2023-06-22T06:22:51;46.08;;;33.38;;
72053;SDS011;59918;51.280;7.950;2023-06-22T06:25:17;41.97;;;32.10;;
72053;SDS011;59918;51.280;7.950;2023-06-22T06:27:42;36.72;;;29.65;;
72053;SDS011;59918;51.280;7.950;2023-06-22T06:30:08;45.03;;;31.55;;
72053;SDS011;59918;51.280;7.950;2023-06-22T06:32:35;41.45;;;31.00;;
72053;SDS011;59918;51.280;7.950;2023-06-22T06:35:00;38.72;;;30.00;;
72053;SDS011;59918;51.280;7.950;2023-06-22T06:37:25;36.58;;;29.38;;
72053;SDS011;59918;51.280;7.950;2023-06-22T06:39:50;37.00;;;29.50;;
72053;SDS011;59918;51.280;7.950;2023-06-22T06:42:16;33.05;;;28.25;;
72053;SDS011;59918;51.280;7.950;2023-06-22T06:44:41;31.63;;;26.55;;
72053;SDS011;59918;51.280;7.950;2023-06-22T06:47:06;29.75;;;26.55;;
72053;SDS011;59918;51.280;7.950;2023-06-22T06:49:33;28.88;;;25.77;;
72053;SDS011;59918;51.280;7.950;2023-06-22T06:51:58;28.80;;;25.23;;
72053;SDS011;59918;51.280;7.950;2023-06-22T06:54:24;29.25;;;24.92;;
72053;SDS011;59918;51.280;7.950;2023-06-22T06:56:49;30.17;;;25.60;;
72053;SDS011;59918;51.280;7.950;2023-06-22T06:59:14;26.67;;;23.83;;
72053;SDS011;59918;51.280;7.950;2023-06-22T07:01:40;24.60;;;22.05;;
72053;SDS011;59918;51.280;7.950;2023-06-22T07:04:05;26.05;;;23.25;;
72053;SDS011;59918;51.280;7.950;2023-06-22T07:06:30;25.27;;;22.20;;
72053;SDS011;59918;51.280;7.950;2023-06-22T07:08:55;22.88;;;20.42;;
72053;SDS011;59918;51.280;7.950;2023-06-22T07:11:21;20.50;;;18.50;;
72053;SDS011;59918;51.280;7.950;2023-06-22T07:13:46;21.80;;;19.70;;
72053;SDS011;59918;51.280;7.950;2023-06-22T07:16:11;24.73;;;19.30;;
72053;SDS011;59918;51.280;7.950;2023-06-22T07:18:36;17.52;;;15.77;;
72053;SDS011;59918;51.280;7.950;2023-06-22T07:21:04;16.92;;;14.98;;
72053;SDS011;59918;51.280;7.950;2023-06-22T07:23:29;15.98;;;14.48;;
72053;SDS011;59918;51.280;7.950;2023-06-22T07:25:55;17.83;;;15.93;;
72053;SDS011;59918;51.280;7.950;2023-06-22T07:28:20;19.67;;;17.73;;
72053;SDS011;59918;51.280;7.950;2023-06-22T07:30:45;18.70;;;16.17;;
72053;SDS011;59918;51.280;7.950;2023-06-22T07:33:11;19.02;;;17.02;;
72053;SDS011;59918;51.280;7.950;2023-06-22T07:35:36;16.63;;;15.10;;
72053;SDS011;59918;51.280;7.950;2023-06-22T07:38:01;16.88;;;15.07;;
72053;SDS011;59918;51.280;7.950;2023-06-22T07:40:26;17.90;;;15.40;;
72053;SDS011;59918;51.280;7.950;2023-06-22T07:42:52;18.75;;;16.30;;
72053;SDS011;59918;51.280;7.950;2023-06-22T07:45:17;15.25;;;13.80;;
72053;SDS011;59918;51.280;7.950;2023-06-22T07:47:42;14.98;;;13.65;;
72053;SDS011;59918;51.280;7.950;2023-06-22T07:50:08;13.15;;;11.70;;
72053;SDS011;59918;51.280;7.950;2023-06-22T07:52:34;13.02;;;11.82;;
72053;SDS011;59918;51.280;7.950;2023-06-22T07:55:00;10.98;;;9.88;;
72053;SDS011;59918;51.280;7.950;2023-06-22T07:57:25;9.77;;;8.90;;
72053;SDS011;59918;51.280;7.950;2023-06-22T07:59:50;10.15;;;9.20;;
72053;SDS011;59918;51.280;7.950;2023-06-22T08:02:16;10.43;;;9.43;;
72053;SDS011;59918;51.280;7.950;2023-06-22T08:04:41;9.40;;;8.60;;
72053;SDS011;59918;51.280;7.950;2023-06-22T08:07:06;11.18;;;9.65;;
72053;SDS011;59918;51.280;7.950;2023-06-22T08:09:32;8.65;;;7.88;;
72053;SDS011;59918;51.280;7.950;2023-06-22T08:11:58;9.40;;;8.60;;
72053;SDS011;59918;51.280;7.950;2023-06-22T08:14:27;8.95;;;8.25;;
72053;SDS011;59918;51.280;7.950;2023-06-22T08:16:53;8.57;;;7.88;;
72053;SDS011;59918;51.280;7.950;2023-06-22T08:19:18;7.28;;;6.68;;
72053;SDS011;59918;51.280;7.950;2023-06-22T08:21:46;9.15;;;8.40;;
72053;SDS011;59918;51.280;7.950;2023-06-22T08:24:11;8.55;;;7.85;;
72053;SDS011;59918;51.280;7.950;2023-06-22T08:26:36;8.77;;;8.07;;
72053;SDS011;59918;51.280;7.950;2023-06-22T08:29:02;8.18;;;7.57;;
72053;SDS011;59918;51.280;7.950;2023-06-22T08:31:28;8.05;;;7.35;;
72053;SDS011;59918;51.280;7.950;2023-06-22T08:33:53;8.02;;;7.38;;
72053;SDS011;59918;51.280;7.950;2023-06-22T08:36:18;7.68;;;7.07;;
72053;SDS011;59918;51.280;7.950;2023-06-22T08:38:44;7.22;;;6.65;;
72053;SDS011;59918;51.280;7.950;2023-06-22T08:41:09;8.00;;;6.20;;
72053;SDS011;59918;51.280;7.950;2023-06-22T08:43:34;7.20;;;6.70;;
72053;SDS011;59918;51.280;7.950;2023-06-22T08:46:08;7.95;;;7.20;;
72053;SDS011;59918;51.280;7.950;2023-06-22T08:48:33;8.82;;;7.55;;
72053;SDS011;59918;51.280;7.950;2023-06-22T08:50:59;7.35;;;6.82;;
72053;SDS011;59918;51.280;7.950;2023-06-22T08:53:30;8.00;;;7.20;;
72053;SDS011;59918;51.280;7.950;2023-06-22T08:55:55;7.80;;;7.20;;
72053;SDS011;59918;51.280;7.950;2023-06-22T08:58:20;7.75;;;7.10;;
72053;SDS011;59918;51.280;7.950;2023-06-22T09:00:45;8.27;;;6.97;;
72053;SDS011;59918;51.280;7.950;2023-06-22T09:03:11;7.82;;;7.22;;
72053;SDS011;59918;51.280;7.950;2023-06-22T09:05:42;6.88;;;6.38;;
72053;SDS011;59918;51.280;7.950;2023-06-22T09:08:07;8.00;;;7.17;;
72053;SDS011;59918;51.280;7.950;2023-06-22T09:10:32;8.45;;;7.40;;
72053;SDS011;59918;51.280;7.950;2023-06-22T09:12:57;7.10;;;6.50;;
72053;SDS011;59918;51.280;7.950;2023-06-22T09:15:23;7.22;;;6.53;;
72053;SDS011;59918;51.280;7.950;2023-06-22T09:17:48;7.78;;;7.07;;
72053;SDS011;59918;51.280;7.950;2023-06-22T09:20:16;7.93;;;7.22;;
72053;SDS011;59918;51.280;7.950;2023-06-22T09:22:42;8.10;;;7.50;;
72053;SDS011;59918;51.280;7.950;2023-06-22T09:25:07;8.38;;;7.45;;
72053;SDS011;59918;51.280;7.950;2023-06-22T09:27:33;8.38;;;7.57;;
72053;SDS011;59918;51.280;7.950;2023-06-22T09:29:58;9.00;;;8.30;;
72053;SDS011;59918;51.280;7.950;2023-06-22T09:32:23;8.38;;;7.60;;
72053;SDS011;59918;51.280;7.950;2023-06-22T09:34:52;7.90;;;7.25;;
72053;SDS011;59918;51.280;7.950;2023-06-22T09:37:17;8.48;;;7.68;;
72053;SDS011;59918;51.280;7.950;2023-06-22T09:39:42;7.83;;;7.23;;
72053;SDS011;59918;51.280;7.950;2023-06-22T09:42:08;9.23;;;8.43;;
72053;SDS011;59918;51.280;7.950;2023-06-22T09:44:33;8.45;;;7.55;;
72053;SDS011;59918;51.280;7.950;2023-06-22T09:46:58;8.82;;;8.13;;
72053;SDS011;59918;51.280;7.950;2023-06-22T09:49:24;8.43;;;7.72;;
72053;SDS011;59918;51.280;7.950;2023-06-22T09:51:52;8.63;;;7.72;;
72053;SDS011;59918;51.280;7.950;2023-06-22T09:54:17;9.57;;;8.68;;
72053;SDS011;59918;51.280;7.950;2023-06-22T09:56:43;8.98;;;8.25;;
72053;SDS011;59918;51.280;7.950;2023-06-22T09:59:08;8.07;;;7.43;;
72053;SDS011;59918;51.280;7.950;2023-06-22T10:01:33;9.33;;;8.43;;
72053;SDS011;59918;51.280;7.950;2023-06-22T10:03:58;9.47;;;8.63;;
72053;SDS011;59918;51.280;7.950;2023-06-22T10:06:23;11.53;;;8.87;;
72053;SDS011;59918;51.280;7.950;2023-06-22T10:08:52;9.82;;;9.02;;
72053;SDS011;59918;51.280;7.950;2023-06-22T10:11:17;10.13;;;9.23;;
72053;SDS011;59918;51.280;7.950;2023-06-22T10:13:42;10.57;;;9.57;;
72053;SDS011;59918;51.280;7.950;2023-06-22T10:16:08;11.25;;;10.10;;
72053;SDS011;59918;51.280;7.950;2023-06-22T10:18:33;10.95;;;9.90;;
72053;SDS011;59918;51.280;7.950;2023-06-22T10:20:59;10.38;;;9.40;;
72053;SDS011;59918;51.280;7.950;2023-06-22T10:23:28;9.82;;;8.82;;
72053;SDS011;59918;51.280;7.950;2023-06-22T10:25:53;10.27;;;9.48;;
72053;SDS011;59918;51.280;7.950;2023-06-22T10:28:18;11.00;;;10.10;;
72053;SDS011;59918;51.280;7.950;2023-06-22T10:30:44;10.85;;;9.95;;
72053;SDS011;59918;51.280;7.950;2023-06-22T10:33:09;10.57;;;9.77;;
72053;SDS011;59918;51.280;7.950;2023-06-22T10:35:35;10.38;;;9.43;;
72053;SDS011;59918;51.280;7.950;2023-06-22T10:38:04;10.63;;;9.73;;
72053;SDS011;59918;51.280;7.950;2023-06-22T10:40:29;10.52;;;9.50;;
72053;SDS011;59918;51.280;7.950;2023-06-22T10:42:55;10.48;;;9.45;;
72053;SDS011;59918;51.280;7.950;2023-06-22T10:45:20;9.77;;;8.87;;
72053;SDS011;59918;51.280;7.950;2023-06-22T10:47:45;9.40;;;8.63;;
72053;SDS011;59918;51.280;7.950;2023-06-22T10:50:11;10.63;;;9.60;;
72053;SDS011;59918;51.280;7.950;2023-06-22T10:52:42;9.85;;;8.95;;
72053;SDS011;59918;51.280;7.950;2023-06-22T10:55:08;12.05;;;10.38;;
72053;SDS011;59918;51.280;7.950;2023-06-22T10:57:34;12.57;;;9.43;;
72053;SDS011;59918;51.280;7.950;2023-06-22T10:59:59;10.00;;;9.00;;
72053;SDS011;59918;51.280;7.950;2023-06-22T11:02:33;10.10;;;9.20;;
72053;SDS011;59918;51.280;7.950;2023-06-22T11:04:58;9.93;;;9.02;;
72053;SDS011;59918;51.280;7.950;2023-06-22T11:07:23;12.90;;;9.20;;
72053;SDS011;59918;51.280;7.950;2023-06-22T11:09:55;9.97;;;9.07;;
72053;SDS011;59918;51.280;7.950;2023-06-22T11:12:21;10.48;;;9.43;;
72053;SDS011;59918;51.280;7.950;2023-06-22T11:14:55;10.88;;;9.77;;
72053;SDS011;59918;51.280;7.950;2023-06-22T11:17:20;10.65;;;9.65;;
72053;SDS011;59918;51.280;7.950;2023-06-22T11:19:45;11.13;;;10.07;;
72053;SDS011;59918;51.280;7.950;2023-06-22T11:22:11;11.13;;;9.98;;
72053;SDS011;59918;51.280;7.950;2023-06-22T11:24:36;13.73;;;10.40;;
72053;SDS011;59918;51.280;7.950;2023-06-22T11:27:04;13.45;;;10.93;;
72053;SDS011;59918;51.280;7.950;2023-06-22T11:29:30;12.68;;;11.38;;
72053;SDS011;59918;51.280;7.950;2023-06-22T11:31:55;13.90;;;11.50;;
72053;SDS011;59918;51.280;7.950;2023-06-22T11:34:20;12.13;;;10.93;;
72053;SDS011;59918;51.280;7.950;2023-06-22T11:36:45;12.50;;;11.33;;
72053;SDS011;59918;51.280;7.950;2023-06-22T11:39:11;12.32;;;11.07;;
72053;SDS011;59918;51.280;7.950;2023-06-22T11:41:42;13.07;;;11.98;;
72053;SDS011;59918;51.280;7.950;2023-06-22T11:44:07;14.40;;;11.88;;
72053;SDS011;59918;51.280;7.950;2023-06-22T11:46:32;13.52;;;12.13;;
72053;SDS011;59918;51.280;7.950;2023-06-22T11:48:58;14.07;;;12.57;;
72053;SDS011;59918;51.280;7.950;2023-06-22T11:51:23;14.85;;;13.40;;
72053;SDS011;59918;51.280;7.950;2023-06-22T11:53:48;14.75;;;12.88;;
72053;SDS011;59918;51.280;7.950;2023-06-22T11:56:19;13.93;;;12.60;;
72053;SDS011;59918;51.280;7.950;2023-06-22T11:58:45;14.48;;;12.95;;
72053;SDS011;59918;51.280;7.950;2023-06-22T12:01:10;15.15;;;13.68;;
72053;SDS011;59918;51.280;7.950;2023-06-22T12:03:35;15.63;;;13.23;;
72053;SDS011;59918;51.280;7.950;2023-06-22T12:06:00;14.90;;;13.33;;
72053;SDS011;59918;51.280;7.950;2023-06-22T12:08:31;18.10;;;13.50;;
72053;SDS011;59918;51.280;7.950;2023-06-22T12:10:57;15.70;;;14.18;;
72053;SDS011;59918;51.280;7.950;2023-06-22T12:13:22;17.37;;;14.70;;
72053;SDS011;59918;51.280;7.950;2023-06-22T12:15:47;16.75;;;15.00;;
72053;SDS011;59918;51.280;7.950;2023-06-22T12:18:12;15.98;;;14.38;;
72053;SDS011;59918;51.280;7.950;2023-06-22T12:20:40;15.88;;;14.18;;
72053;SDS011;59918;51.280;7.950;2023-06-22T12:23:06;17.67;;;15.20;;
72053;SDS011;59918;51.280;7.950;2023-06-22T12:25:31;17.00;;;15.30;;
72053;SDS011;59918;51.280;7.950;2023-06-22T12:27:56;19.63;;;17.08;;
72053;SDS011;59918;51.280;7.950;2023-06-22T12:30:22;23.38;;;17.52;;
72053;SDS011;59918;51.280;7.950;2023-06-22T12:32:47;27.50;;;18.67;;
72053;SDS011;59918;51.280;7.950;2023-06-22T12:35:12;23.23;;;17.10;;
72053;SDS011;59918;51.280;7.950;2023-06-22T12:37:43;20.90;;;17.13;;
72053;SDS011;59918;51.280;7.950;2023-06-22T12:40:09;67.57;;;19.88;;
72053;SDS011;59918;51.280;7.950;2023-06-22T12:42:35;33.67;;;20.48;;
72053;SDS011;59918;51.280;7.950;2023-06-22T12:45:00;46.92;;;25.27;;
72053;SDS011;59918;51.280;7.950;2023-06-22T12:47:31;23.42;;;19.08;;
72053;SDS011;59918;51.280;7.950;2023-06-22T12:49:56;34.23;;;21.13;;
72053;SDS011;59918;51.280;7.950;2023-06-22T12:52:22;39.83;;;21.37;;
72053;SDS011;59918;51.280;7.950;2023-06-22T12:54:47;35.50;;;24.17;;
72053;SDS011;59918;51.280;7.950;2023-06-22T12:57:12;55.93;;;28.47;;
72053;SDS011;59918;51.280;7.950;2023-06-22T12:59:41;54.33;;;26.98;;
72053;SDS011;59918;51.280;7.950;2023-06-22T13:02:06;48.83;;;26.90;;
72053;SDS011;59918;51.280;7.950;2023-06-22T13:04:31;48.47;;;26.88;;
72053;SDS011;59918;51.280;7.950;2023-06-22T13:06:56;45.20;;;27.83;;
72053;SDS011;59918;51.280;7.950;2023-06-22T13:09:22;41.50;;;25.25;;
72053;SDS011;59918;51.280;7.950;2023-06-22T13:11:47;29.92;;;22.98;;
72053;SDS011;59918;51.280;7.950;2023-06-22T13:14:12;34.10;;;23.58;;
72053;SDS011;59918;51.280;7.950;2023-06-22T13:16:41;33.67;;;22.70;;
72053;SDS011;59918;51.280;7.950;2023-06-22T13:19:06;32.88;;;24.20;;
72053;SDS011;59918;51.280;7.950;2023-06-22T13:21:31;28.27;;;20.58;;
72053;SDS011;59918;51.280;7.950;2023-06-22T13:23:57;27.00;;;22.50;;
72053;SDS011;59918;51.280;7.950;2023-06-22T13:26:22;27.45;;;22.50;;
72053;SDS011;59918;51.280;7.950;2023-06-22T13:28:47;27.00;;;21.92;;
72053;SDS011;59918;51.280;7.950;2023-06-22T13:31:12;29.15;;;20.75;;
72053;SDS011;59918;51.280;7.950;2023-06-22T13:33:41;23.15;;;19.27;;
72053;SDS011;59918;51.280;7.950;2023-06-22T13:36:07;25.67;;;20.77;;
72053;SDS011;59918;51.280;7.950;2023-06-22T13:38:32;19.75;;;17.63;;
72053;SDS011;59918;51.280;7.950;2023-06-22T13:40:58;19.98;;;17.90;;
72053;SDS011;59918;51.280;7.950;2023-06-22T13:43:23;35.05;;;20.55;;
72053;SDS011;59918;51.280;7.950;2023-06-22T13:45:48;18.58;;;16.67;;
72053;SDS011;59918;51.280;7.950;2023-06-22T13:48:13;17.55;;;15.73;;
72053;SDS011;59918;51.280;7.950;2023-06-22T13:50:42;17.90;;;16.10;;
72053;SDS011;59918;51.280;7.950;2023-06-22T13:53:07;16.77;;;15.10;;
72053;SDS011;59918;51.280;7.950;2023-06-22T13:55:33;15.27;;;13.73;;
72053;SDS011;59918;51.280;7.950;2023-06-22T13:57:58;16.38;;;14.77;;
72053;SDS011;59918;51.280;7.950;2023-06-22T14:00:23;15.23;;;13.32;;
72053;SDS011;59918;51.280;7.950;2023-06-22T14:02:48;14.93;;;13.52;;
72053;SDS011;59918;51.280;7.950;2023-06-22T14:05:20;15.80;;;13.97;;
72053;SDS011;59918;51.280;7.950;2023-06-22T14:07:45;15.65;;;14.23;;
72053;SDS011;59918;51.280;7.950;2023-06-22T14:10:10;15.85;;;14.35;;
72053;SDS011;59918;51.280;7.950;2023-06-22T14:12:36;18.30;;;14.60;;
72053;SDS011;59918;51.280;7.950;2023-06-22T14:15:01;14.90;;;13.50;;
72053;SDS011;59918;51.280;7.950;2023-06-22T14:17:35;15.15;;;13.68;;
72053;SDS011;59918;51.280;7.950;2023-06-22T14:20:01;14.25;;;12.95;;
72053;SDS011;59918;51.280;7.950;2023-06-22T14:22:30;14.38;;;12.88;;
72053;SDS011;59918;51.280;7.950;2023-06-22T14:24:55;13.65;;;12.30;;
72053;SDS011;59918;51.280;7.950;2023-06-22T14:27:21;14.38;;;13.07;;